Coventryville, New York
Current Conditions -  °F | °C
As of 5:53 PM on Tuesday 27 Jan 2015 (Local Time) from KBGM Reporting Station
Scattered Clouds Scattered Clouds  
Wind Chill: -7°   Ceiling: Unl
Heat Index:   Visibility: 10mi
Dew Point:   Wind: 14mph
Humidity: 77%   Direction: 330°NNW
Pressure: 29.81"   Gusts: NA
Location:  42.3372°N, 75.5118°W
Report Text: KBGM 272253Z 33012KT 10SM SCT011 M13/M16 A2981 RMK AO2 SLP127 T11281161
Loading
Personal Weather Stations






























Interactive Weather Map New forecast layout! Learn more

10-Day Weather Forecast

Advertisements
Track Severe Weather on mobile